sensor_id;sensor_type;location;lat;lon;timestamp;temperature;humidity
3504;DHT22;1766;53.490;10.174;2022-12-17T00:00:13;4.50;41.30
3504;DHT22;1766;53.490;10.174;2022-12-17T00:02:30;4.50;41.50
3504;DHT22;1766;53.490;10.174;2022-12-17T00:04:46;4.60;41.70
3504;DHT22;1766;53.490;10.174;2022-12-17T00:07:02;4.60;41.80
3504;DHT22;1766;53.490;10.174;2022-12-17T00:09:17;4.60;41.90
3504;DHT22;1766;53.490;10.174;2022-12-17T00:11:33;4.60;41.90
3504;DHT22;1766;53.490;10.174;2022-12-17T00:13:49;4.70;41.80
3504;DHT22;1766;53.490;10.174;2022-12-17T00:16:05;4.70;42.10
3504;DHT22;1766;53.490;10.174;2022-12-17T00:18:23;4.70;42.10
3504;DHT22;1766;53.490;10.174;2022-12-17T00:20:39;4.70;42.20
3504;DHT22;1766;53.490;10.174;2022-12-17T00:22:58;4.70;42.30
3504;DHT22;1766;53.490;10.174;2022-12-17T00:25:14;4.70;42.30
3504;DHT22;1766;53.490;10.174;2022-12-17T00:27:30;4.80;42.50
3504;DHT22;1766;53.490;10.174;2022-12-17T00:29:46;4.80;42.50
3504;DHT22;1766;53.490;10.174;2022-12-17T00:32:02;4.80;42.70
3504;DHT22;1766;53.490;10.174;2022-12-17T00:34:19;4.70;42.70
3504;DHT22;1766;53.490;10.174;2022-12-17T00:36:35;4.90;42.80
3504;DHT22;1766;53.490;10.174;2022-12-17T00:38:51;4.90;42.60
3504;DHT22;1766;53.490;10.174;2022-12-17T00:41:07;4.90;42.90
3504;DHT22;1766;53.490;10.174;2022-12-17T00:43:22;4.90;42.90
3504;DHT22;1766;53.490;10.174;2022-12-17T00:45:38;4.90;43.00
3504;DHT22;1766;53.490;10.174;2022-12-17T00:47:54;4.90;43.40
3504;DHT22;1766;53.490;10.174;2022-12-17T00:50:11;5.00;43.00
3504;DHT22;1766;53.490;10.174;2022-12-17T00:52:27;5.00;43.00
3504;DHT22;1766;53.490;10.174;2022-12-17T00:54:42;4.90;43.00
3504;DHT22;1766;53.490;10.174;2022-12-17T00:56:58;5.00;43.00
3504;DHT22;1766;53.490;10.174;2022-12-17T00:59:14;5.00;43.10
3504;DHT22;1766;53.490;10.174;2022-12-17T01:01:30;5.00;43.10
3504;DHT22;1766;53.490;10.174;2022-12-17T01:03:46;5.00;43.10
3504;DHT22;1766;53.490;10.174;2022-12-17T01:06:03;5.00;43.20
3504;DHT22;1766;53.490;10.174;2022-12-17T01:08:19;5.20;43.30
3504;DHT22;1766;53.490;10.174;2022-12-17T01:10:35;5.00;43.10
3504;DHT22;1766;53.490;10.174;2022-12-17T01:12:51;5.10;43.30
3504;DHT22;1766;53.490;10.174;2022-12-17T01:15:07;5.10;43.30
3504;DHT22;1766;53.490;10.174;2022-12-17T01:17:23;6.50;44.30
3504;DHT22;1766;53.490;10.174;2022-12-17T01:19:39;5.10;43.20
3504;DHT22;1766;53.490;10.174;2022-12-17T01:21:56;5.10;43.20
3504;DHT22;1766;53.490;10.174;2022-12-17T01:24:12;5.10;43.10
3504;DHT22;1766;53.490;10.174;2022-12-17T01:26:27;5.10;43.10
3504;DHT22;1766;53.490;10.174;2022-12-17T01:28:43;5.10;43.10
3504;DHT22;1766;53.490;10.174;2022-12-17T01:30:59;5.10;43.00
3504;DHT22;1766;53.490;10.174;2022-12-17T01:33:15;5.10;43.10
3504;DHT22;1766;53.490;10.174;2022-12-17T01:35:30;5.00;43.00
3504;DHT22;1766;53.490;10.174;2022-12-17T01:37:47;5.00;43.00
3504;DHT22;1766;53.490;10.174;2022-12-17T01:40:04;5.00;43.00
3504;DHT22;1766;53.490;10.174;2022-12-17T01:42:20;5.00;43.10
3504;DHT22;1766;53.490;10.174;2022-12-17T01:44:45;5.00;43.00
3504;DHT22;1766;53.490;10.174;2022-12-17T01:47:02;5.00;43.10
3504;DHT22;1766;53.490;10.174;2022-12-17T01:49:20;5.00;43.10
3504;DHT22;1766;53.490;10.174;2022-12-17T01:51:37;5.00;43.10
3504;DHT22;1766;53.490;10.174;2022-12-17T01:53:54;5.00;43.10
3504;DHT22;1766;53.490;10.174;2022-12-17T01:56:11;5.00;43.00
3504;DHT22;1766;53.490;10.174;2022-12-17T01:58:27;5.00;43.00
3504;DHT22;1766;53.490;10.174;2022-12-17T02:00:42;5.00;43.00
3504;DHT22;1766;53.490;10.174;2022-12-17T02:02:59;5.00;43.00
3504;DHT22;1766;53.490;10.174;2022-12-17T02:05:15;4.90;43.10
3504;DHT22;1766;53.490;10.174;2022-12-17T02:07:39;4.90;43.10
3504;DHT22;1766;53.490;10.174;2022-12-17T02:10:11;5.00;43.20
3504;DHT22;1766;53.490;10.174;2022-12-17T02:12:40;4.90;43.10
3504;DHT22;1766;53.490;10.174;2022-12-17T02:15:02;5.00;43.10
3504;DHT22;1766;53.490;10.174;2022-12-17T02:17:24;4.90;43.00
3504;DHT22;1766;53.490;10.174;2022-12-17T02:19:50;4.80;43.00
3504;DHT22;1766;53.490;10.174;2022-12-17T02:22:21;4.90;43.10
3504;DHT22;1766;53.490;10.174;2022-12-17T02:24:46;4.90;43.10
3504;DHT22;1766;53.490;10.174;2022-12-17T02:27:08;4.90;43.00
3504;DHT22;1766;53.490;10.174;2022-12-17T02:29:27;4.90;43.00
3504;DHT22;1766;53.490;10.174;2022-12-17T02:31:44;4.90;42.70
3504;DHT22;1766;53.490;10.174;2022-12-17T02:34:00;4.90;43.00
3504;DHT22;1766;53.490;10.174;2022-12-17T02:36:16;4.90;42.90
3504;DHT22;1766;53.490;10.174;2022-12-17T02:38:32;4.90;42.80
3504;DHT22;1766;53.490;10.174;2022-12-17T02:40:48;4.80;42.70
3504;DHT22;1766;53.490;10.174;2022-12-17T02:43:07;4.80;42.60
3504;DHT22;1766;53.490;10.174;2022-12-17T02:45:23;4.80;42.50
3504;DHT22;1766;53.490;10.174;2022-12-17T02:47:39;4.70;42.30
3504;DHT22;1766;53.490;10.174;2022-12-17T02:49:55;4.70;42.20
3504;DHT22;1766;53.490;10.174;2022-12-17T02:52:11;4.50;42.10
3504;DHT22;1766;53.490;10.174;2022-12-17T02:54:28;4.60;42.00
3504;DHT22;1766;53.490;10.174;2022-12-17T02:56:44;4.50;41.90
3504;DHT22;1766;53.490;10.174;2022-12-17T02:59:01;4.50;41.80
3504;DHT22;1766;53.490;10.174;2022-12-17T03:01:17;4.50;41.60
3504;DHT22;1766;53.490;10.174;2022-12-17T03:03:38;4.40;41.60
3504;DHT22;1766;53.490;10.174;2022-12-17T03:05:54;4.40;41.30
3504;DHT22;1766;53.490;10.174;2022-12-17T03:08:10;4.30;41.00
3504;DHT22;1766;53.490;10.174;2022-12-17T03:10:26;4.30;41.10
3504;DHT22;1766;53.490;10.174;2022-12-17T03:12:42;4.20;41.00
3504;DHT22;1766;53.490;10.174;2022-12-17T03:14:59;4.20;41.20
3504;DHT22;1766;53.490;10.174;2022-12-17T03:17:15;4.20;41.20
3504;DHT22;1766;53.490;10.174;2022-12-17T03:19:31;4.10;41.10
3504;DHT22;1766;53.490;10.174;2022-12-17T03:21:46;4.10;41.20
3504;DHT22;1766;53.490;10.174;2022-12-17T03:24:02;4.00;41.00
3504;DHT22;1766;53.490;10.174;2022-12-17T03:26:18;4.00;41.00
3504;DHT22;1766;53.490;10.174;2022-12-17T03:28:34;4.00;40.80
3504;DHT22;1766;53.490;10.174;2022-12-17T03:30:51;3.90;40.90
3504;DHT22;1766;53.490;10.174;2022-12-17T03:33:08;3.90;40.80
3504;DHT22;1766;53.490;10.174;2022-12-17T03:35:23;3.70;40.60
3504;DHT22;1766;53.490;10.174;2022-12-17T03:37:39;3.80;40.60
3504;DHT22;1766;53.490;10.174;2022-12-17T03:39:55;3.80;40.70
3504;DHT22;1766;53.490;10.174;2022-12-17T03:42:11;3.80;41.30
3504;DHT22;1766;53.490;10.174;2022-12-17T03:44:27;3.70;40.70
3504;DHT22;1766;53.490;10.174;2022-12-17T03:46:44;3.70;40.80
3504;DHT22;1766;53.490;10.174;2022-12-17T03:49:00;3.70;40.80
3504;DHT22;1766;53.490;10.174;2022-12-17T03:51:15;3.60;40.70
3504;DHT22;1766;53.490;10.174;2022-12-17T03:53:31;3.70;40.80
3504;DHT22;1766;53.490;10.174;2022-12-17T03:55:47;3.60;40.60
3504;DHT22;1766;53.490;10.174;2022-12-17T03:58:03;3.70;40.80
3504;DHT22;1766;53.490;10.174;2022-12-17T04:00:19;3.60;40.70
3504;DHT22;1766;53.490;10.174;2022-12-17T04:02:38;3.60;40.70
3504;DHT22;1766;53.490;10.174;2022-12-17T04:04:54;3.50;40.60
3504;DHT22;1766;53.490;10.174;2022-12-17T04:07:10;3.60;40.60
3504;DHT22;1766;53.490;10.174;2022-12-17T04:09:26;3.50;40.60
3504;DHT22;1766;53.490;10.174;2022-12-17T04:11:42;3.50;40.60
3504;DHT22;1766;53.490;10.174;2022-12-17T04:13:57;3.50;40.60
3504;DHT22;1766;53.490;10.174;2022-12-17T04:16:13;3.40;40.50
3504;DHT22;1766;53.490;10.174;2022-12-17T04:18:31;3.40;40.50
3504;DHT22;1766;53.490;10.174;2022-12-17T04:20:47;3.40;40.40
3504;DHT22;1766;53.490;10.174;2022-12-17T04:23:02;3.40;40.60
3504;DHT22;1766;53.490;10.174;2022-12-17T04:25:18;3.40;40.60
3504;DHT22;1766;53.490;10.174;2022-12-17T04:27:34;3.30;40.50
3504;DHT22;1766;53.490;10.174;2022-12-17T04:29:50;3.30;40.40
3504;DHT22;1766;53.490;10.174;2022-12-17T04:32:06;3.30;40.40
3504;DHT22;1766;53.490;10.174;2022-12-17T04:34:23;3.30;40.40
3504;DHT22;1766;53.490;10.174;2022-12-17T04:36:39;3.20;40.40
3504;DHT22;1766;53.490;10.174;2022-12-17T04:38:55;3.20;40.40
3504;DHT22;1766;53.490;10.174;2022-12-17T04:41:11;3.20;40.60
3504;DHT22;1766;53.490;10.174;2022-12-17T04:43:26;3.10;40.40
3504;DHT22;1766;53.490;10.174;2022-12-17T04:45:42;3.20;40.60
3504;DHT22;1766;53.490;10.174;2022-12-17T04:48:00;3.10;40.40
3504;DHT22;1766;53.490;10.174;2022-12-17T04:50:18;3.10;40.60
3504;DHT22;1766;53.490;10.174;2022-12-17T04:52:34;3.10;40.30
3504;DHT22;1766;53.490;10.174;2022-12-17T04:54:50;3.10;40.20
3504;DHT22;1766;53.490;10.174;2022-12-17T04:57:05;3.10;40.30
3504;DHT22;1766;53.490;10.174;2022-12-17T04:59:21;3.10;40.30
3504;DHT22;1766;53.490;10.174;2022-12-17T05:01:37;3.00;40.10
3504;DHT22;1766;53.490;10.174;2022-12-17T05:03:53;2.90;40.00
3504;DHT22;1766;53.490;10.174;2022-12-17T05:06:10;3.00;39.90
3504;DHT22;1766;53.490;10.174;2022-12-17T05:08:26;3.00;40.10
3504;DHT22;1766;53.490;10.174;2022-12-17T05:10:42;2.90;40.20
3504;DHT22;1766;53.490;10.174;2022-12-17T05:12:58;2.90;40.30
3504;DHT22;1766;53.490;10.174;2022-12-17T05:15:15;2.90;40.50
3504;DHT22;1766;53.490;10.174;2022-12-17T05:17:30;2.90;40.40
3504;DHT22;1766;53.490;10.174;2022-12-17T05:19:46;2.90;40.40
3504;DHT22;1766;53.490;10.174;2022-12-17T05:22:03;2.90;40.10
3504;DHT22;1766;53.490;10.174;2022-12-17T05:24:19;2.90;40.10
3504;DHT22;1766;53.490;10.174;2022-12-17T05:26:35;2.90;40.30
3504;DHT22;1766;53.490;10.174;2022-12-17T05:28:51;2.80;40.30
3504;DHT22;1766;53.490;10.174;2022-12-17T05:31:07;2.70;40.20
3504;DHT22;1766;53.490;10.174;2022-12-17T05:33:23;2.80;40.30
3504;DHT22;1766;53.490;10.174;2022-12-17T05:35:39;2.80;40.20
3504;DHT22;1766;53.490;10.174;2022-12-17T05:38:02;2.80;39.90
3504;DHT22;1766;53.490;10.174;2022-12-17T05:40:18;2.80;40.60
3504;DHT22;1766;53.490;10.174;2022-12-17T05:42:34;2.80;40.30
3504;DHT22;1766;53.490;10.174;2022-12-17T05:44:50;2.80;40.20
3504;DHT22;1766;53.490;10.174;2022-12-17T05:47:06;2.70;40.10
3504;DHT22;1766;53.490;10.174;2022-12-17T05:49:22;2.70;40.00
3504;DHT22;1766;53.490;10.174;2022-12-17T05:51:37;2.70;39.90
3504;DHT22;1766;53.490;10.174;2022-12-17T05:53:55;2.70;40.00
3504;DHT22;1766;53.490;10.174;2022-12-17T05:56:10;2.70;40.30
3504;DHT22;1766;53.490;10.174;2022-12-17T05:58:26;2.60;40.30
3504;DHT22;1766;53.490;10.174;2022-12-17T06:00:42;2.60;40.00
3504;DHT22;1766;53.490;10.174;2022-12-17T06:02:59;2.60;40.10
3504;DHT22;1766;53.490;10.174;2022-12-17T06:05:15;2.60;40.50
3504;DHT22;1766;53.490;10.174;2022-12-17T06:07:31;2.60;40.30
3504;DHT22;1766;53.490;10.174;2022-12-17T06:09:49;2.60;40.20
3504;DHT22;1766;53.490;10.174;2022-12-17T06:12:05;2.40;39.90
3504;DHT22;1766;53.490;10.174;2022-12-17T06:14:21;2.60;40.40
3504;DHT22;1766;53.490;10.174;2022-12-17T06:16:37;2.60;40.10
3504;DHT22;1766;53.490;10.174;2022-12-17T06:18:53;2.10;39.80
3504;DHT22;1766;53.490;10.174;2022-12-17T06:21:09;2.70;40.50
3504;DHT22;1766;53.490;10.174;2022-12-17T06:23:25;2.70;40.60
3504;DHT22;1766;53.490;10.174;2022-12-17T06:25:42;2.70;41.10
3504;DHT22;1766;53.490;10.174;2022-12-17T06:27:58;2.70;40.50
3504;DHT22;1766;53.490;10.174;2022-12-17T06:30:15;2.50;40.30
3504;DHT22;1766;53.490;10.174;2022-12-17T06:32:31;2.60;39.90
3504;DHT22;1766;53.490;10.174;2022-12-17T06:34:47;2.60;39.90
3504;DHT22;1766;53.490;10.174;2022-12-17T06:37:02;2.60;39.50
3504;DHT22;1766;53.490;10.174;2022-12-17T06:39:18;2.60;39.60
3504;DHT22;1766;53.490;10.174;2022-12-17T06:41:36;2.60;39.40
3504;DHT22;1766;53.490;10.174;2022-12-17T06:43:51;2.50;39.30
3504;DHT22;1766;53.490;10.174;2022-12-17T06:46:07;2.50;39.40
3504;DHT22;1766;53.490;10.174;2022-12-17T06:48:23;2.50;39.70
3504;DHT22;1766;53.490;10.174;2022-12-17T06:50:39;2.50;39.60
3504;DHT22;1766;53.490;10.174;2022-12-17T06:52:58;2.50;39.20
3504;DHT22;1766;53.490;10.174;2022-12-17T06:55:15;2.40;39.60
3504;DHT22;1766;53.490;10.174;2022-12-17T06:57:32;2.40;39.10
3504;DHT22;1766;53.490;10.174;2022-12-17T06:59:48;2.40;39.10
3504;DHT22;1766;53.490;10.174;2022-12-17T07:02:04;2.40;39.30
3504;DHT22;1766;53.490;10.174;2022-12-17T07:04:20;2.40;39.30
3504;DHT22;1766;53.490;10.174;2022-12-17T07:06:36;2.40;39.00
3504;DHT22;1766;53.490;10.174;2022-12-17T07:08:52;2.30;39.10
3504;DHT22;1766;53.490;10.174;2022-12-17T07:11:08;2.40;38.90
3504;DHT22;1766;53.490;10.174;2022-12-17T07:13:25;2.30;38.60
3504;DHT22;1766;53.490;10.174;2022-12-17T07:15:41;2.30;38.50
3504;DHT22;1766;53.490;10.174;2022-12-17T07:17:58;2.10;38.50
3504;DHT22;1766;53.490;10.174;2022-12-17T07:20:15;2.20;39.10
3504;DHT22;1766;53.490;10.174;2022-12-17T07:22:31;2.10;38.30
3504;DHT22;1766;53.490;10.174;2022-12-17T07:24:47;2.20;38.40
3504;DHT22;1766;53.490;10.174;2022-12-17T07:27:03;2.30;38.60
3504;DHT22;1766;53.490;10.174;2022-12-17T07:29:20;2.20;38.50
3504;DHT22;1766;53.490;10.174;2022-12-17T07:31:36;2.20;38.90
3504;DHT22;1766;53.490;10.174;2022-12-17T07:33:52;2.20;38.90
3504;DHT22;1766;53.490;10.174;2022-12-17T07:36:08;2.30;39.00
3504;DHT22;1766;53.490;10.174;2022-12-17T07:38:24;2.20;38.90
3504;DHT22;1766;53.490;10.174;2022-12-17T07:40:40;2.20;38.90
3504;DHT22;1766;53.490;10.174;2022-12-17T07:42:56;2.30;38.80
3504;DHT22;1766;53.490;10.174;2022-12-17T07:45:13;2.30;39.00
3504;DHT22;1766;53.490;10.174;2022-12-17T07:47:29;2.20;38.60
3504;DHT22;1766;53.490;10.174;2022-12-17T07:49:45;2.30;38.80
3504;DHT22;1766;53.490;10.174;2022-12-17T07:52:00;2.30;38.90
3504;DHT22;1766;53.490;10.174;2022-12-17T07:54:16;1.60;38.50
3504;DHT22;1766;53.490;10.174;2022-12-17T07:56:32;2.20;38.90
3504;DHT22;1766;53.490;10.174;2022-12-17T07:58:48;2.20;39.20
3504;DHT22;1766;53.490;10.174;2022-12-17T08:01:05;2.20;39.40
3504;DHT22;1766;53.490;10.174;2022-12-17T08:03:21;2.20;39.50
3504;DHT22;1766;53.490;10.174;2022-12-17T08:05:37;2.20;39.40
3504;DHT22;1766;53.490;10.174;2022-12-17T08:07:52;2.30;39.40
3504;DHT22;1766;53.490;10.174;2022-12-17T08:10:08;1.90;39.10
3504;DHT22;1766;53.490;10.174;2022-12-17T08:12:25;2.30;39.60
3504;DHT22;1766;53.490;10.174;2022-12-17T08:14:41;2.30;39.40
3504;DHT22;1766;53.490;10.174;2022-12-17T08:16:58;2.30;39.50
3504;DHT22;1766;53.490;10.174;2022-12-17T08:19:14;2.30;39.50
3504;DHT22;1766;53.490;10.174;2022-12-17T08:21:30;2.30;39.40
3504;DHT22;1766;53.490;10.174;2022-12-17T08:23:45;1.80;38.80
3504;DHT22;1766;53.490;10.174;2022-12-17T08:26:01;2.40;39.50
3504;DHT22;1766;53.490;10.174;2022-12-17T08:28:17;2.40;39.60
3504;DHT22;1766;53.490;10.174;2022-12-17T08:30:33;2.40;39.70
3504;DHT22;1766;53.490;10.174;2022-12-17T08:32:51;2.40;39.50
3504;DHT22;1766;53.490;10.174;2022-12-17T08:35:07;2.50;39.80
3504;DHT22;1766;53.490;10.174;2022-12-17T08:37:23;2.50;39.60
3504;DHT22;1766;53.490;10.174;2022-12-17T08:39:39;2.20;39.50
3504;DHT22;1766;53.490;10.174;2022-12-17T08:41:55;2.50;39.90
3504;DHT22;1766;53.490;10.174;2022-12-17T08:44:11;2.60;40.00
3504;DHT22;1766;53.490;10.174;2022-12-17T08:46:27;2.60;40.20
3504;DHT22;1766;53.490;10.174;2022-12-17T08:48:44;2.50;39.90
3504;DHT22;1766;53.490;10.174;2022-12-17T08:51:00;2.70;39.40
3504;DHT22;1766;53.490;10.174;2022-12-17T08:53:16;2.70;40.10
3504;DHT22;1766;53.490;10.174;2022-12-17T08:55:32;2.70;39.60
3504;DHT22;1766;53.490;10.174;2022-12-17T08:57:52;2.80;40.00
3504;DHT22;1766;53.490;10.174;2022-12-17T09:00:09;2.80;40.60
3504;DHT22;1766;53.490;10.174;2022-12-17T09:02:25;2.80;40.80
3504;DHT22;1766;53.490;10.174;2022-12-17T09:04:42;2.90;40.70
3504;DHT22;1766;53.490;10.174;2022-12-17T09:06:58;2.90;40.80
3504;DHT22;1766;53.490;10.174;2022-12-17T09:09:14;2.90;40.90
3504;DHT22;1766;53.490;10.174;2022-12-17T09:11:30;3.00;40.90
3504;DHT22;1766;53.490;10.174;2022-12-17T09:13:45;3.00;40.90
3504;DHT22;1766;53.490;10.174;2022-12-17T09:16:01;3.10;41.00
3504;DHT22;1766;53.490;10.174;2022-12-17T09:18:33;3.10;40.90
3504;DHT22;1766;53.490;10.174;2022-12-17T09:20:52;3.00;41.00
3504;DHT22;1766;53.490;10.174;2022-12-17T09:23:08;3.20;41.30
3504;DHT22;1766;53.490;10.174;2022-12-17T09:25:24;3.20;41.30
3504;DHT22;1766;53.490;10.174;2022-12-17T09:27:40;3.30;41.30
3504;DHT22;1766;53.490;10.174;2022-12-17T09:29:55;3.30;41.40
3504;DHT22;1766;53.490;10.174;2022-12-17T09:32:11;3.40;41.40
3504;DHT22;1766;53.490;10.174;2022-12-17T09:34:29;3.40;41.40
3504;DHT22;1766;53.490;10.174;2022-12-17T09:36:46;3.40;41.30
3504;DHT22;1766;53.490;10.174;2022-12-17T09:39:02;3.50;41.60
3504;DHT22;1766;53.490;10.174;2022-12-17T09:41:25;3.40;41.80
3504;DHT22;1766;53.490;10.174;2022-12-17T09:43:45;3.60;42.10
3504;DHT22;1766;53.490;10.174;2022-12-17T09:46:08;3.60;42.10
3504;DHT22;1766;53.490;10.174;2022-12-17T09:48:37;3.70;42.30
3504;DHT22;1766;53.490;10.174;2022-12-17T09:50:55;3.70;42.30
3504;DHT22;1766;53.490;10.174;2022-12-17T09:53:19;3.90;42.50
3504;DHT22;1766;53.490;10.174;2022-12-17T09:55:46;3.90;42.60
3504;DHT22;1766;53.490;10.174;2022-12-17T09:58:04;3.90;42.60
3504;DHT22;1766;53.490;10.174;2022-12-17T10:00:23;4.00;42.60
3504;DHT22;1766;53.490;10.174;2022-12-17T10:02:40;4.00;42.70
3504;DHT22;1766;53.490;10.174;2022-12-17T10:04:56;4.10;42.80
3504;DHT22;1766;53.490;10.174;2022-12-17T10:07:16;4.10;42.90
3504;DHT22;1766;53.490;10.174;2022-12-17T10:09:35;4.20;43.00
3504;DHT22;1766;53.490;10.174;2022-12-17T10:11:50;4.20;42.90
3504;DHT22;1766;53.490;10.174;2022-12-17T10:14:13;4.10;42.80
3504;DHT22;1766;53.490;10.174;2022-12-17T10:16:33;4.40;43.30
3504;DHT22;1766;53.490;10.174;2022-12-17T10:18:53;4.40;43.20
3504;DHT22;1766;53.490;10.174;2022-12-17T10:21:10;4.50;43.20
3504;DHT22;1766;53.490;10.174;2022-12-17T10:23:28;4.50;43.40
3504;DHT22;1766;53.490;10.174;2022-12-17T10:25:51;4.60;43.60
3504;DHT22;1766;53.490;10.174;2022-12-17T10:28:10;4.60;43.50
3504;DHT22;1766;53.490;10.174;2022-12-17T10:30:27;4.70;43.60
3504;DHT22;1766;53.490;10.174;2022-12-17T10:32:54;4.70;44.30
3504;DHT22;1766;53.490;10.174;2022-12-17T10:35:16;4.80;44.40
3504;DHT22;1766;53.490;10.174;2022-12-17T10:37:34;4.90;44.00
3504;DHT22;1766;53.490;10.174;2022-12-17T10:39:55;4.90;43.70
3504;DHT22;1766;53.490;10.174;2022-12-17T10:42:20;5.00;44.00
3504;DHT22;1766;53.490;10.174;2022-12-17T10:44:37;5.00;44.10
3504;DHT22;1766;53.490;10.174;2022-12-17T10:46:58;5.20;43.90
3504;DHT22;1766;53.490;10.174;2022-12-17T10:49:17;5.10;44.20
3504;DHT22;1766;53.490;10.174;2022-12-17T10:51:35;5.20;44.20
3504;DHT22;1766;53.490;10.174;2022-12-17T10:53:55;5.10;43.90
3504;DHT22;1766;53.490;10.174;2022-12-17T10:56:19;5.30;44.10
3504;DHT22;1766;53.490;10.174;2022-12-17T10:58:44;5.30;44.50
3504;DHT22;1766;53.490;10.174;2022-12-17T11:01:02;5.40;44.70
3504;DHT22;1766;53.490;10.174;2022-12-17T11:03:29;5.50;44.80
3504;DHT22;1766;53.490;10.174;2022-12-17T11:05:51;5.50;44.90
3504;DHT22;1766;53.490;10.174;2022-12-17T11:08:11;5.60;45.90
3504;DHT22;1766;53.490;10.174;2022-12-17T11:10:30;5.80;45.80
3504;DHT22;1766;53.490;10.174;2022-12-17T11:12:50;5.90;45.70
3504;DHT22;1766;53.490;10.174;2022-12-17T11:15:19;5.90;45.50
3504;DHT22;1766;53.490;10.174;2022-12-17T11:17:39;6.00;45.70
3504;DHT22;1766;53.490;10.174;2022-12-17T11:19:59;6.00;45.50
3504;DHT22;1766;53.490;10.174;2022-12-17T11:22:25;6.10;45.80
3504;DHT22;1766;53.490;10.174;2022-12-17T11:24:47;6.20;46.20
3504;DHT22;1766;53.490;10.174;2022-12-17T11:27:11;5.40;46.40
3504;DHT22;1766;53.490;10.174;2022-12-17T11:29:31;7.60;48.00
3504;DHT22;1766;53.490;10.174;2022-12-17T11:31:59;9.00;46.50
3504;DHT22;1766;53.490;10.174;2022-12-17T11:34:32;10.40;44.30
3504;DHT22;1766;53.490;10.174;2022-12-17T11:37:01;12.10;42.40
3504;DHT22;1766;53.490;10.174;2022-12-17T11:39:26;13.30;41.20
3504;DHT22;1766;53.490;10.174;2022-12-17T11:42:01;14.10;40.40
3504;DHT22;1766;53.490;10.174;2022-12-17T11:44:31;14.50;39.90
3504;DHT22;1766;53.490;10.174;2022-12-17T11:47:01;14.70;40.00
3504;DHT22;1766;53.490;10.174;2022-12-17T11:49:31;14.80;40.20
3504;DHT22;1766;53.490;10.174;2022-12-17T11:51:56;14.50;40.50
3504;DHT22;1766;53.490;10.174;2022-12-17T11:54:21;14.30;41.20
3504;DHT22;1766;53.490;10.174;2022-12-17T11:56:43;14.10;42.00
3504;DHT22;1766;53.490;10.174;2022-12-17T11:59:08;14.00;42.30
3504;DHT22;1766;53.490;10.174;2022-12-17T12:01:37;14.00;42.30
3504;DHT22;1766;53.490;10.174;2022-12-17T12:04:11;14.10;42.50
3504;DHT22;1766;53.490;10.174;2022-12-17T12:06:43;14.30;42.50
3504;DHT22;1766;53.490;10.174;2022-12-17T12:09:07;14.70;42.30
3504;DHT22;1766;53.490;10.174;2022-12-17T12:11:32;15.00;42.10
3504;DHT22;1766;53.490;10.174;2022-12-17T12:13:56;15.60;41.70
3504;DHT22;1766;53.490;10.174;2022-12-17T12:16:27;16.30;40.70
3504;DHT22;1766;53.490;10.174;2022-12-17T12:18:54;17.00;39.30
3504;DHT22;1766;53.490;10.174;2022-12-17T12:21:29;17.90;37.70
3504;DHT22;1766;53.490;10.174;2022-12-17T12:24:02;18.50;36.30
3504;DHT22;1766;53.490;10.174;2022-12-17T12:26:30;19.10;35.30
3504;DHT22;1766;53.490;10.174;2022-12-17T12:28:54;19.40;34.50
3504;DHT22;1766;53.490;10.174;2022-12-17T12:31:20;19.40;34.00
3504;DHT22;1766;53.490;10.174;2022-12-17T12:33:48;19.00;33.60
3504;DHT22;1766;53.490;10.174;2022-12-17T12:36:10;18.50;33.80
3504;DHT22;1766;53.490;10.174;2022-12-17T12:38:30;18.20;33.90
3504;DHT22;1766;53.490;10.174;2022-12-17T12:40:53;18.10;33.90
3504;DHT22;1766;53.490;10.174;2022-12-17T12:43:18;18.10;33.40
3504;DHT22;1766;53.490;10.174;2022-12-17T12:45:42;17.60;33.30
3504;DHT22;1766;53.490;10.174;2022-12-17T12:48:05;16.80;33.30
3504;DHT22;1766;53.490;10.174;2022-12-17T12:50:33;15.90;33.60
3504;DHT22;1766;53.490;10.174;2022-12-17T12:52:58;15.00;34.30
3504;DHT22;1766;53.490;10.174;2022-12-17T12:55:14;14.30;34.50
3504;DHT22;1766;53.490;10.174;2022-12-17T12:57:33;13.70;34.90
3504;DHT22;1766;53.490;10.174;2022-12-17T12:59:50;13.10;35.30
3504;DHT22;1766;53.490;10.174;2022-12-17T13:02:17;12.70;35.50
3504;DHT22;1766;53.490;10.174;2022-12-17T13:04:38;12.20;35.60
3504;DHT22;1766;53.490;10.174;2022-12-17T13:06:57;11.80;35.90
3504;DHT22;1766;53.490;10.174;2022-12-17T13:09:05;11.40;35.90
3504;DHT22;1766;53.490;10.174;2022-12-17T13:11:28;11.00;36.20
3504;DHT22;1766;53.490;10.174;2022-12-17T13:13:40;10.70;36.60
3504;DHT22;1766;53.490;10.174;2022-12-17T13:15:58;10.50;36.70
3504;DHT22;1766;53.490;10.174;2022-12-17T13:18:17;10.20;36.80
3504;DHT22;1766;53.490;10.174;2022-12-17T13:20:26;10.30;37.50
3504;DHT22;1766;53.490;10.174;2022-12-17T13:22:31;10.40;37.50
3504;DHT22;1766;53.490;10.174;2022-12-17T13:24:35;10.40;37.30
3504;DHT22;1766;53.490;10.174;2022-12-17T13:26:44;10.40;37.30
3504;DHT22;1766;53.490;10.174;2022-12-17T13:28:58;10.30;37.20
3504;DHT22;1766;53.490;10.174;2022-12-17T13:31:04;10.20;37.40
3504;DHT22;1766;53.490;10.174;2022-12-17T13:33:21;10.10;37.10
3504;DHT22;1766;53.490;10.174;2022-12-17T13:35:35;10.10;37.50
3504;DHT22;1766;53.490;10.174;2022-12-17T13:37:47;10.20;37.60
3504;DHT22;1766;53.490;10.174;2022-12-17T13:40:02;10.60;37.80
3504;DHT22;1766;53.490;10.174;2022-12-17T13:42:26;10.90;37.80
3504;DHT22;1766;53.490;10.174;2022-12-17T13:44:35;11.30;37.40
3504;DHT22;1766;53.490;10.174;2022-12-17T13:46:42;11.60;37.20
3504;DHT22;1766;53.490;10.174;2022-12-17T13:48:51;11.60;36.90
3504;DHT22;1766;53.490;10.174;2022-12-17T13:50:56;11.70;36.90
3504;DHT22;1766;53.490;10.174;2022-12-17T13:53:08;11.70;36.80
3504;DHT22;1766;53.490;10.174;2022-12-17T13:55:17;11.90;36.70
3504;DHT22;1766;53.490;10.174;2022-12-17T13:57:23;12.20;36.90
3504;DHT22;1766;53.490;10.174;2022-12-17T13:59:25;12.50;36.80
3504;DHT22;1766;53.490;10.174;2022-12-17T14:01:30;12.70;36.40
3504;DHT22;1766;53.490;10.174;2022-12-17T14:03:35;12.90;36.10
3504;DHT22;1766;53.490;10.174;2022-12-17T14:05:42;12.90;35.70
3504;DHT22;1766;53.490;10.174;2022-12-17T14:07:45;12.70;35.30
3504;DHT22;1766;53.490;10.174;2022-12-17T14:09:47;12.60;34.90
3504;DHT22;1766;53.490;10.174;2022-12-17T14:11:50;12.30;34.80
3504;DHT22;1766;53.490;10.174;2022-12-17T14:14:10;12.10;34.60
3504;DHT22;1766;53.490;10.174;2022-12-17T14:16:27;11.80;34.40
3504;DHT22;1766;53.490;10.174;2022-12-17T14:18:30;11.50;34.40
3504;DHT22;1766;53.490;10.174;2022-12-17T14:20:34;11.30;34.20
3504;DHT22;1766;53.490;10.174;2022-12-17T14:22:39;10.90;34.10
3504;DHT22;1766;53.490;10.174;2022-12-17T14:24:42;10.80;34.20
3504;DHT22;1766;53.490;10.174;2022-12-17T14:26:47;10.60;33.90
3504;DHT22;1766;53.490;10.174;2022-12-17T14:28:53;10.40;34.10
3504;DHT22;1766;53.490;10.174;2022-12-17T14:31:03;10.60;34.40
3504;DHT22;1766;53.490;10.174;2022-12-17T14:33:25;10.00;33.90
3504;DHT22;1766;53.490;10.174;2022-12-17T14:35:30;9.70;34.70
3504;DHT22;1766;53.490;10.174;2022-12-17T14:37:34;9.60;34.70
3504;DHT22;1766;53.490;10.174;2022-12-17T14:39:36;9.30;34.50
3504;DHT22;1766;53.490;10.174;2022-12-17T14:41:44;9.10;34.60
3504;DHT22;1766;53.490;10.174;2022-12-17T14:44:02;10.20;34.60
3504;DHT22;1766;53.490;10.174;2022-12-17T14:46:05;8.80;34.80
3504;DHT22;1766;53.490;10.174;2022-12-17T14:48:26;8.70;34.20
3504;DHT22;1766;53.490;10.174;2022-12-17T14:50:53;8.50;34.30